Time;durP1;ratioP1;P1;durP2;ratioP2;P2;SDS_P1;SDS_P2;PMS_P1;PMS_P2;Temp;Humidity;BMP_temperature;BMP_pressure;BME280_temperature;BME280_humidity;BME280_pressure;Samples;Min_cycle;Max_cycle;Signal;HPM_P1;HPM_P2
2022/07/25 00:00:15;;;;;;;9.18;6.30;;;;;;;24.49;100.00;99991.00;5068780;28;20735;-74
2022/07/25 00:02:41;;;;;;;14.35;6.68;;;;;;;24.50;100.00;99985.66;5069867;28;20278;-74
2022/07/25 00:05:09;;;;;;;12.48;6.28;;;;;;;24.37;100.00;99962.34;5069160;28;20222;-74
2022/07/25 00:07:35;;;;;;;9.23;6.35;;;;;;;24.55;100.00;99994.25;5069444;28;20659;-74
2022/07/25 00:10:02;;;;;;;7.25;5.72;;;;;;;24.52;100.00;99998.81;5072843;28;20670;-74
2022/07/25 00:12:29;;;;;;;6.32;5.28;;;;;;;24.53;100.00;100001.41;5073079;28;20195;-72
2022/07/25 00:14:56;;;;;;;7.22;6.20;;;;;;;24.51;100.00;100000.59;5073070;28;20191;-74
2022/07/25 00:17:24;;;;;;;6.63;5.30;;;;;;;24.62;100.00;100008.09;5022517;28;20691;-74
2022/07/25 00:19:52;;;;;;;6.90;5.68;;;;;;;24.63;100.00;100001.88;5053404;28;20200;-73
2022/07/25 00:22:18;;;;;;;7.45;5.40;;;;;;;24.74;100.00;100009.34;5067425;28;20202;-74
2022/07/25 00:24:45;;;;;;;7.20;5.78;;;;;;;24.51;100.00;99984.69;5072869;28;20195;-74
2022/07/25 00:27:12;;;;;;;5.60;5.10;;;;;;;24.63;100.00;100007.16;5072802;28;20211;-73
2022/07/25 00:29:39;;;;;;;6.68;5.90;;;;;;;24.60;100.00;99996.69;5053643;28;20202;-74
2022/07/25 00:32:06;;;;;;;7.00;5.97;;;;;;;24.62;100.00;99992.19;5073027;28;20659;-74
2022/07/25 00:34:34;;;;;;;5.70;4.88;;;;;;;24.38;100.00;99993.25;5064212;28;20196;-74
2022/07/25 00:37:01;;;;;;;10.25;6.15;;;;;;;24.56;100.00;99989.81;5052908;28;20204;-73
2022/07/25 00:39:28;;;;;;;9.90;6.07;;;;;;;24.35;100.00;99981.00;5063816;28;20655;-74
2022/07/25 00:41:55;;;;;;;9.45;5.93;;;;;;;24.18;100.00;99984.38;5038465;28;20197;-73
2022/07/25 00:44:24;;;;;;;11.20;6.28;;;;;;;24.29;100.00;99980.41;5072589;28;20191;-74
2022/07/25 00:46:51;;;;;;;10.20;5.57;;;;;;;24.22;100.00;99989.53;5004583;28;20198;-74
2022/07/25 00:49:17;;;;;;;10.52;6.15;;;;;;;24.21;100.00;99993.13;5072579;28;20194;-73
2022/07/25 00:51:47;;;;;;;9.30;6.30;;;;;;;24.12;100.00;99979.28;5072463;28;20202;-74
2022/07/25 00:54:14;;;;;;;6.45;5.85;;;;;;;24.19;100.00;99983.44;5072362;28;20206;-74
2022/07/25 00:56:42;;;;;;;8.50;6.55;;;;;;;24.23;100.00;99994.75;5037232;28;20581;-73
2022/07/25 00:59:09;;;;;;;7.38;6.28;;;;;;;24.01;100.00;99970.91;5072217;28;20226;-73
2022/07/25 01:01:36;;;;;;;10.55;6.68;;;;;;;24.24;100.00;99977.06;5071218;28;20203;-73
2022/07/25 01:04:04;;;;;;;10.13;6.63;;;;;;;24.46;100.00;99999.09;5072427;28;20206;-73
2022/07/25 01:06:31;;;;;;;9.20;6.40;;;;;;;23.94;100.00;99927.06;5071846;28;20227;-73
2022/07/25 01:09:01;;;;;;;7.82;6.20;;;;;;;23.90;100.00;99936.06;5071957;28;20677;-73
2022/07/25 01:11:28;;;;;;;7.38;6.35;;;;;;;24.41;100.00;100006.38;5072318;28;20198;-73
2022/07/25 01:13:55;;;;;;;10.30;6.47;;;;;;;24.28;100.00;99991.91;5072038;28;20203;-73
2022/07/25 01:16:22;;;;;;;8.82;6.20;;;;;;;24.44;100.00;100001.78;5072084;28;20209;-73
2022/07/25 01:18:48;;;;;;;8.25;5.88;;;;;;;24.52;100.00;99998.81;5036864;28;20225;-74
2022/07/25 01:21:17;;;;;;;12.38;5.97;;;;;;;24.59;100.00;100001.16;5071171;28;20202;-72
2022/07/25 01:23:43;;;;;;;9.68;6.45;;;;;;;24.60;100.00;99999.34;5072074;28;20608;-73
2022/07/25 01:26:10;;;;;;;8.85;6.63;;;;;;;24.63;100.00;100005.38;5071092;28;20191;-73
2022/07/25 01:28:37;;;;;;;8.90;6.50;;;;;;;24.60;100.00;100009.97;5072045;28;20576;-73
2022/07/25 01:31:04;;;;;;;8.73;6.43;;;;;;;24.73;100.00;100019.09;5071263;28;20221;-74
2022/07/25 01:33:31;;;;;;;9.70;6.22;;;;;;;24.74;100.00;100023.47;5071989;28;20276;-73
2022/07/25 01:35:58;;;;;;;7.63;6.82;;;;;;;24.80;100.00;100025.84;5071625;28;20713;-74
2022/07/25 01:38:26;;;;;;;6.93;6.28;;;;;;;24.94;100.00;100026.13;5071782;28;20695;-74
2022/07/25 01:40:53;;;;;;;8.48;5.95;;;;;;;24.86;100.00;100030.06;5071845;28;20203;-73
2022/07/25 01:43:20;;;;;;;12.07;6.68;;;;;;;24.98;100.00;100038.34;5071548;28;20203;-74
2022/07/25 01:45:47;;;;;;;8.10;5.97;;;;;;;24.92;100.00;100035.97;5071641;28;20195;-73
2022/07/25 01:48:14;;;;;;;7.10;5.90;;;;;;;24.96;100.00;100053.47;5071613;28;20568;-73
2022/07/25 01:50:41;;;;;;;7.32;6.65;;;;;;;24.87;100.00;100043.25;5071558;28;20202;-73
2022/07/25 01:53:07;;;;;;;9.90;6.75;;;;;;;24.86;100.00;100044.22;5036427;28;20194;-74
2022/07/25 01:55:36;;;;;;;9.07;6.00;;;;;;;24.69;100.00;100017.50;5070935;28;20202;-73
2022/07/25 01:58:02;;;;;;;10.55;6.53;;;;;;;24.86;100.00;100054.81;5071333;28;20222;-73
2022/07/25 02:00:30;;;;;;;9.18;6.53;;;;;;;24.78;100.00;100051.59;5071121;28;20191;-74
2022/07/25 02:05:37;;;;;;;9.93;7.50;;;;;;;24.52;100.00;100035.94;5070202;28;20202;-73
2022/07/25 02:08:04;;;;;;;7.57;6.63;;;;;;;24.60;100.00;100039.13;5071064;28;20206;-73
2022/07/25 02:10:32;;;;;;;9.27;7.10;;;;;;;24.68;100.00;100027.25;5071068;28;20199;-73
2022/07/25 02:13:01;;;;;;;11.10;7.20;;;;;;;24.98;100.00;100034.81;5071426;28;20209;-73
2022/07/25 02:15:28;;;;;;;8.68;6.75;;;;;;;24.93;100.00;100023.56;5035852;28;20617;-73
2022/07/25 02:17:54;;;;;;;8.05;7.25;;;;;;;24.99;100.00;100034.75;5071224;28;20231;-74
2022/07/25 02:20:21;;;;;;;12.50;6.93;;;;;;;24.94;100.00;100047.34;5070997;28;20203;-74
2022/07/25 02:22:48;;;;;;;10.77;7.28;;;;;;;24.93;100.00;100047.44;5070924;28;20226;-74
2022/07/25 02:25:15;;;;;;;15.77;7.95;;;;;;;24.76;100.00;100049.94;5070307;28;20199;-73
2022/07/25 02:27:42;;;;;;;9.77;8.27;;;;;;;24.75;100.00;100043.78;5070800;28;20207;-74
2022/07/25 02:30:11;;;;;;;9.48;8.50;;;;;;;24.61;100.00;100040.88;5070880;28;20567;-73
2022/07/25 02:32:38;;;;;;;14.48;8.02;;;;;;;24.61;100.00;100044.34;5070452;28;20202;-73
2022/07/25 02:35:06;;;;;;;20.38;8.88;;;;;;;24.37;100.00;100031.28;5069771;28;20190;-74
2022/07/25 02:37:33;;;;;;;15.25;9.63;;;;;;;24.34;100.00;100031.41;5001874;28;20198;-73
2022/07/25 02:40:00;;;;;;;11.73;8.40;;;;;;;24.13;100.00;99996.06;5070853;28;20237;-74
2022/07/25 02:42:27;;;;;;;14.80;9.07;;;;;;;24.07;100.00;100023.66;5070969;28;20201;-73
2022/07/25 02:44:54;;;;;;;13.85;8.45;;;;;;;24.07;100.00;100018.38;5070146;28;20927;-73
2022/07/25 02:47:22;;;;;;;11.10;8.82;;;;;;;24.13;100.00;100012.84;5070307;28;20219;-73
2022/07/25 02:49:49;;;;;;;10.40;8.75;;;;;;;24.16;100.00;100020.66;5070342;28;20206;-74
2022/07/25 02:52:16;;;;;;;14.48;9.40;;;;;;;24.10;100.00;100017.38;5070158;28;20226;-72
2022/07/25 02:54:43;;;;;;;15.52;8.95;;;;;;;24.02;100.00;100014.16;5070254;28;20764;-72
2022/07/25 02:57:10;;;;;;;14.23;9.13;;;;;;;23.99;100.00;100019.59;5070476;28;20195;-72
2022/07/25 02:59:36;;;;;;;12.07;8.40;;;;;;;24.06;100.00;100021.94;5069903;28;20219;-72
2022/07/25 03:02:03;;;;;;;13.60;9.23;;;;;;;23.98;100.00;100024.03;5070760;28;20195;-72
2022/07/25 03:04:32;;;;;;;13.20;8.88;;;;;;;24.08;100.00;100008.59;5070135;28;20217;-72
2022/07/25 03:06:59;;;;;;;13.75;10.30;;;;;;;24.02;100.00;100028.28;5064445;28;20191;-73
2022/07/25 03:09:25;;;;;;;13.98;9.82;;;;;;;24.03;100.00;100026.50;5069951;28;20210;-74
2022/07/25 03:11:52;;;;;;;13.55;10.30;;;;;;;23.99;100.00;100015.16;5070452;28;20202;-73
2022/07/25 03:14:19;;;;;;;17.15;10.55;;;;;;;24.03;100.00;100022.06;5070269;28;20229;-72
2022/07/25 03:16:46;;;;;;;14.23;11.27;;;;;;;23.85;100.00;100019.28;5070124;28;20203;-73
2022/07/25 03:19:13;;;;;;;20.45;10.90;;;;;;;23.87;100.00;100010.34;5070203;28;20229;-73
2022/07/25 03:21:41;;;;;;;14.10;10.55;;;;;;;24.06;100.00;100011.34;5070097;28;20206;-73
2022/07/25 03:24:08;;;;;;;14.55;10.07;;;;;;;23.96;100.00;100012.66;5050673;28;20214;-73
2022/07/25 03:26:35;;;;;;;16.33;10.98;;;;;;;24.13;100.00;100011.97;5070233;28;20198;-73
2022/07/25 03:29:02;;;;;;;17.40;10.55;;;;;;;24.36;100.00;100018.97;5070340;28;20209;-73
2022/07/25 03:31:28;;;;;;;14.88;9.40;;;;;;;24.43;100.00;100026.59;5034586;28;20198;-74
2022/07/25 03:33:55;;;;;;;16.02;10.40;;;;;;;24.48;100.00;100023.72;5070068;28;20647;-74
2022/07/25 03:36:22;;;;;;;17.08;10.75;;;;;;;24.53;100.00;100021.75;5069910;28;20206;-74
2022/07/25 03:38:50;;;;;;;11.15;8.98;;;;;;;24.78;100.00;100030.38;5069551;28;21028;-73
2022/07/25 03:41:17;;;;;;;15.75;10.55;;;;;;;24.68;100.00;100015.81;5069581;28;20575;-74
2022/07/25 03:43:44;;;;;;;14.48;10.02;;;;;;;24.97;100.00;100036.59;5071471;28;20298;-73
2022/07/25 03:46:11;;;;;;;9.77;8.75;;;;;;;25.21;100.00;100049.72;5073663;28;20225;-73
2022/07/25 03:48:38;;;;;;;12.38;8.70;;;;;;;24.75;100.00;100019.91;5038395;28;20227;-73
2022/07/25 03:51:05;;;;;;;18.45;8.80;;;;;;;25.05;100.00;100042.44;5073859;28;20194;-73
2022/07/25 03:53:32;;;;;;;12.77;8.02;;;;;;;25.18;100.00;100037.47;5073650;28;20206;-74
2022/07/25 03:56:00;;;;;;;17.38;8.02;;;;;;;25.36;100.00;100041.94;5073103;28;20674;-73
2022/07/25 03:58:27;;;;;;;10.85;8.32;;;;;;;25.29;100.00;100036.97;5072886;28;20593;-74
2022/07/25 04:00:54;;;;;;;13.50;7.82;;;;;;;25.03;100.00;100033.69;5054544;28;20199;-73
2022/07/25 04:03:21;;;;;;;14.05;7.97;;;;;;;25.02;100.00;100031.09;5073190;28;20211;-74
2022/07/25 04:05:48;;;;;;;11.65;8.15;;;;;;;24.80;100.00;100009.94;5072881;28;20201;-73
2022/07/25 04:08:15;;;;;;;10.80;8.02;;;;;;;24.90;100.00;100035.16;5072774;28;20564;-73
2022/07/25 04:10:41;;;;;;;12.63;8.40;;;;;;;25.04;100.00;100040.72;5053895;28;20210;-73
2022/07/25 04:13:10;;;;;;;12.70;8.85;;;;;;;25.01;100.00;100016.97;5072960;28;20203;-72
2022/07/25 04:15:36;;;;;;;11.00;8.60;;;;;;;25.15;100.00;100037.56;5034941;28;20658;-72
2022/07/25 04:18:03;;;;;;;9.80;7.88;;;;;;;25.03;100.00;100044.31;5072712;28;20195;-72
2022/07/25 04:20:30;;;;;;;9.27;7.95;;;;;;;24.84;100.00;100019.53;5037012;28;20222;-72
2022/07/25 04:22:57;;;;;;;12.82;8.02;;;;;;;25.17;100.00;100031.28;5073321;28;20938;-74
2022/07/25 04:25:24;;;;;;;12.98;8.02;;;;;;;25.22;100.00;100046.13;5072614;28;20202;-72
2022/07/25 04:27:50;;;;;;;11.02;8.20;;;;;;;25.34;100.00;100043.78;5072284;28;20198;-72
2022/07/25 04:30:19;;;;;;;12.77;7.70;;;;;;;25.37;100.00;100050.72;5072548;28;20578;-72
2022/07/25 04:32:46;;;;;;;11.10;7.40;;;;;;;25.21;100.00;100057.69;5072675;28;20763;-73
2022/07/25 04:35:13;;;;;;;8.50;6.90;;;;;;;25.14;100.00;100052.66;5072978;28;20219;-74
2022/07/25 04:37:40;;;;;;;7.70;6.65;;;;;;;25.12;100.00;100065.13;5072689;28;20195;-73
2022/07/25 04:40:09;;;;;;;9.55;7.05;;;;;;;25.23;100.00;100059.31;5037686;28;20719;-73
2022/07/25 04:42:36;;;;;;;14.45;7.10;;;;;;;25.15;100.00;100062.31;5072258;28;20956;-73
2022/07/25 04:45:03;;;;;;;16.27;7.65;;;;;;;25.15;100.00;100062.31;5072704;28;20202;-74
2022/07/25 04:47:31;;;;;;;12.38;7.20;;;;;;;25.59;100.00;100064.78;5036727;28;20199;-76
2022/07/25 04:49:58;;;;;;;7.90;7.10;;;;;;;25.75;100.00;100065.78;5072553;28;20191;-75
2022/07/25 04:52:25;;;;;;;12.32;7.28;;;;;;;25.88;100.00;100069.56;5072276;28;20658;-75
2022/07/25 04:54:52;;;;;;;9.82;6.68;;;;;;;25.47;100.00;100038.78;5072354;28;20832;-76
2022/07/25 04:57:19;;;;;;;11.38;7.13;;;;;;;25.62;100.00;100068.13;5072000;28;20202;-75
2022/07/25 04:59:46;;;;;;;7.47;6.65;;;;;;;25.55;100.00;100074.66;5072113;28;20226;-75
2022/07/25 05:02:13;;;;;;;8.68;7.25;;;;;;;25.50;100.00;100081.09;5034871;28;20211;-75
2022/07/25 05:04:42;;;;;;;10.55;7.25;;;;;;;25.91;100.00;100072.06;5071591;28;20191;-75
2022/07/25 05:07:08;;;;;;;7.05;6.43;;;;;;;25.75;100.00;100083.50;5071711;28;20654;-76
2022/07/25 05:09:35;;;;;;;11.85;7.43;;;;;;;25.85;100.00;100058.22;5072414;28;20195;-74
2022/07/25 05:12:02;;;;;;;7.68;6.97;;;;;;;26.07;100.00;100081.06;5034693;28;20192;-78
2022/07/25 05:14:29;;;;;;;12.55;7.18;;;;;;;25.92;100.00;100076.47;5069088;28;20191;-76
2022/07/25 05:16:56;;;;;;;15.15;7.22;;;;;;;26.57;100.00;100089.22;5070936;28;20198;-77
2022/07/25 05:19:23;;;;;;;8.77;7.07;;;;;;;26.79;100.00;100096.94;5071289;28;20230;-76
2022/07/25 05:21:51;;;;;;;9.95;6.72;;;;;;;27.43;100.00;100112.25;5072019;28;20198;-76
2022/07/25 05:24:18;;;;;;;6.72;6.00;;;;;;;28.06;100.00;100119.41;5068815;28;20230;-77
2022/07/25 05:26:45;;;;;;;7.90;6.55;;;;;;;28.75;100.00;100119.03;5071213;28;20209;-77
2022/07/25 05:29:11;;;;;;;8.77;6.55;;;;;;;28.97;100.00;100124.78;5052798;28;20201;-77
2022/07/25 05:31:38;;;;;;;12.20;6.10;;;;;;;29.45;100.00;100120.09;5071185;28;20198;-77
2022/07/25 05:34:05;;;;;;;8.77;6.07;;;;;;;28.45;100.00;100121.63;5071431;28;20190;-74
2022/07/25 05:36:32;;;;;;;11.23;6.97;;;;;;;28.64;100.00;100110.75;5071675;28;20198;-74
2022/07/25 05:39:00;;;;;;;7.28;6.57;;;;;;;28.61;100.00;100108.25;5071502;28;20565;-74
2022/07/25 05:41:27;;;;;;;8.85;6.22;;;;;;;28.92;100.00;100128.69;5071430;28;20198;-73
2022/07/25 05:43:54;;;;;;;9.65;6.30;;;;;;;28.11;100.00;100126.31;5071041;28;20193;-73
2022/07/25 05:46:21;;;;;;;13.20;7.00;;;;;;;27.71;100.00;100117.84;5071040;28;20202;-74
2022/07/25 05:48:48;;;;;;;20.13;7.70;;;;;;;27.58;100.00;100116.75;5070328;28;20205;-74
2022/07/25 05:51:14;;;;;;;7.35;6.40;;;;;;;27.60;100.00;100128.22;5070872;28;20194;-74
2022/07/25 05:53:41;;;;;;;8.13;6.82;;;;;;;27.64;100.00;100118.25;5070743;28;20195;-73
2022/07/25 05:56:10;;;;;;;7.90;6.85;;;;;;;27.09;100.00;100124.69;5070870;28;20206;-73
2022/07/25 05:58:39;;;;;;;5.90;4.32;;;;;;;26.84;100.00;100105.59;5069747;28;20678;-73
2022/07/25 06:01:06;;;;;;;9.65;7.25;;;;;;;26.97;100.00;100122.63;5070565;28;20739;-74
2022/07/25 06:03:34;;;;;;;11.13;7.03;;;;;;;27.02;100.00;100128.59;5069754;28;20199;-74
2022/07/25 06:06:00;;;;;;;12.68;7.50;;;;;;;27.05;100.00;100107.13;5068721;28;20206;-74
2022/07/25 06:08:29;;;;;;;9.32;7.15;;;;;;;27.36;100.00;100121.53;5068085;28;20655;-76
2022/07/25 06:10:57;;;;;;;11.98;7.15;;;;;;;26.89;100.00;100122.19;5069212;28;20284;-76
2022/07/25 06:13:25;;;;;;;5.97;5.43;;;;;;;26.49;100.00;100098.50;5072902;28;20264;-75
2022/07/25 06:15:53;;;;;;;7.10;6.50;;;;;;;26.25;100.00;100103.25;5070536;28;20197;-74
2022/07/25 06:18:20;;;;;;;10.20;7.30;;;;;;;26.44;100.00;100105.84;5071119;28;20221;-74
2022/07/25 06:20:47;;;;;;;10.23;7.88;;;;;;;26.57;100.00;100125.59;5070136;28;20727;-75
2022/07/25 06:23:14;;;;;;;8.35;7.55;;;;;;;26.70;100.00;100105.41;5070654;28;20226;-75
2022/07/25 06:25:41;;;;;;;9.00;7.50;;;;;;;27.43;100.00;100128.25;5070296;28;20191;-76
2022/07/25 06:28:08;;;;;;;9.00;7.10;;;;;;;27.14;100.00;100137.75;5068114;28;20206;-76
2022/07/25 06:30:36;;;;;;;10.45;7.55;;;;;;;27.33;100.00;100137.63;5069643;28;20210;-74
2022/07/25 06:33:03;;;;;;;7.63;6.93;;;;;;;27.01;100.00;100137.50;5067319;28;20198;-74
2022/07/25 06:35:30;;;;;;;7.00;6.05;;;;;;;27.04;100.00;100139.19;5066574;28;20222;-74
2022/07/25 06:37:57;;;;;;;8.52;7.68;;;;;;;26.71;100.00;100139.06;5067421;28;20335;-74
2022/07/25 06:40:24;;;;;;;12.32;8.27;;;;;;;26.84;100.00;100150.84;5065535;28;20239;-76
2022/07/25 06:42:51;;;;;;;9.77;7.72;;;;;;;27.20;100.00;100144.56;5066386;28;20202;-72
2022/07/25 06:45:18;;;;;;;7.05;6.32;;;;;;;26.83;100.00;100142.91;5066703;28;20213;-73
2022/07/25 06:47:46;;;;;;;8.52;7.68;;;;;;;27.04;100.00;100126.72;5044910;28;20205;-73
2022/07/25 06:50:17;;;;;;;9.18;8.27;;;;;;;27.02;100.00;100136.59;5066549;28;20203;-73
2022/07/25 06:52:44;;;;;;;9.10;7.32;;;;;;;27.05;100.00;100139.09;5063429;28;20931;-73
2022/07/25 06:55:12;;;;;;;8.05;7.10;;;;;;;27.11;100.00;100143.25;5064709;28;20206;-74
2022/07/25 06:57:39;;;;;;;8.70;7.90;;;;;;;27.25;100.00;100113.22;5067071;28;20206;-73
2022/07/25 07:00:09;;;;;;;10.40;6.63;;;;;;;27.11;100.00;100138.75;5062632;28;20230;-74
2022/07/25 07:02:46;;;;;;;9.70;7.40;;;;;;;27.36;100.00;100138.31;5064443;28;20212;-75
2022/07/25 07:05:15;;;;;;;10.48;7.28;;;;;;;27.40;100.00;100144.34;5066239;28;20236;-73
2022/07/25 07:07:41;;;;;;;8.90;6.90;;;;;;;27.01;100.00;100145.50;5066555;28;20643;-75
2022/07/25 07:10:09;;;;;;;7.55;6.72;;;;;;;27.13;100.00;100137.81;5065629;28;20205;-74
2022/07/25 07:12:36;;;;;;;9.40;7.85;;;;;;;27.27;100.00;100127.31;5065539;28;20203;-72
2022/07/25 07:15:03;;;;;;;7.90;7.10;;;;;;;27.34;100.00;100145.56;5046130;28;20211;-74
2022/07/25 07:17:29;;;;;;;8.95;7.05;;;;;;;27.41;100.00;100146.09;5065016;28;20907;-72
2022/07/25 07:19:57;;;;;;;9.55;8.57;;;;;;;27.55;100.00;100133.78;5065485;28;20222;-73
2022/07/25 07:22:25;;;;;;;10.63;7.88;;;;;;;27.88;100.00;100151.53;5033401;28;20198;-73
2022/07/25 07:24:52;;;;;;;12.27;7.82;;;;;;;27.37;100.00;100155.16;5068936;28;20202;-75
2022/07/25 07:27:19;;;;;;;10.40;7.65;;;;;;;27.77;100.00;100160.13;5068746;28;21693;-74
2022/07/25 07:29:46;;;;;;;7.82;6.82;;;;;;;27.78;100.00;100147.66;5069405;28;20709;-76
2022/07/25 07:32:12;;;;;;;10.90;7.95;;;;;;;27.84;100.00;100160.66;5070349;28;20202;-80
2022/07/25 07:34:39;;;;;;;23.80;15.27;;;;;;;27.73;100.00;100152.38;5068699;28;20941;-74
2022/07/25 07:37:06;;;;;;;8.88;7.72;;;;;;;27.84;100.00;100155.31;5066783;28;20254;-74
2022/07/25 07:39:34;;;;;;;8.60;7.78;;;;;;;28.03;100.00;100151.56;5070157;28;20732;-74
2022/07/25 07:42:01;;;;;;;10.18;8.02;;;;;;;28.16;100.00;100157.09;5069474;28;20728;-73
2022/07/25 07:44:28;;;;;;;11.48;8.02;;;;;;;27.92;100.00;100153.09;5069035;28;20206;-72
2022/07/25 07:46:55;;;;;;;7.75;6.93;;;;;;;28.03;100.00;100170.25;5069358;28;21000;-74
2022/07/25 07:49:22;;;;;;;12.30;8.35;;;;;;;28.04;100.00;100163.06;5069701;28;20191;-75
2022/07/25 07:51:49;;;;;;;9.27;8.20;;;;;;;28.34;100.00;100155.19;5061274;28;20297;-74
2022/07/25 07:57:01;;;;;;;9.05;8.20;;;;;;;28.42;100.00;100156.50;5069895;28;20739;-74
2022/07/25 07:59:28;;;;;;;12.65;8.27;;;;;;;28.22;100.00;100155.91;5019232;28;20195;-76
2022/07/25 08:01:55;;;;;;;10.02;8.30;;;;;;;27.82;100.00;100136.78;5050362;28;20207;-76
2022/07/25 08:04:22;;;;;;;9.10;8.25;;;;;;;27.92;100.00;100153.09;5056456;28;20295;-75
2022/07/25 08:06:49;;;;;;;10.13;8.93;;;;;;;28.45;100.00;100150.13;5049386;28;20200;-74
2022/07/25 08:09:16;;;;;;;9.75;7.60;;;;;;;28.32;100.00;100152.63;5065891;28;20209;-74
2022/07/25 08:11:42;;;;;;;8.80;8.00;;;;;;;27.93;100.00;100081.03;5068067;28;20685;-74
2022/07/25 08:14:11;;;;;;;8.35;7.55;;;;;;;28.20;100.00;100144.44;5068182;28;20203;-74
2022/07/25 08:16:38;;;;;;;11.38;8.40;;;;;;;28.02;100.00;100149.84;5067786;28;20706;-75
2022/07/25 08:19:05;;;;;;;9.38;8.50;;;;;;;28.19;100.00;100151.59;5068647;28;20194;-74
2022/07/25 08:21:31;;;;;;;10.98;8.20;;;;;;;27.78;100.00;100127.22;5068795;28;20868;-74
2022/07/25 08:23:58;;;;;;;10.55;8.60;;;;;;;27.93;100.00;100154.84;5068183;28;20717;-75
2022/07/25 08:26:26;;;;;;;9.05;8.25;;;;;;;28.16;100.00;100151.75;5069823;28;20203;-75
2022/07/25 08:28:53;;;;;;;9.88;8.90;;;;;;;28.46;100.00;100149.19;5068547;28;20214;-72
2022/07/25 08:31:21;;;;;;;12.98;9.25;;;;;;;27.99;100.00;100091.38;5069563;28;20198;-74
2022/07/25 08:33:48;;;;;;;11.30;8.60;;;;;;;28.40;100.00;100152.16;5029561;28;20211;-73
2022/07/25 08:36:15;;;;;;;8.73;7.53;;;;;;;28.39;100.00;100142.47;5049747;28;20211;-74
2022/07/25 08:38:42;;;;;;;10.48;8.80;;;;;;;28.55;100.00;100149.50;5049742;28;20615;-74
2022/07/25 08:41:09;;;;;;;9.65;8.65;;;;;;;28.46;100.00;100149.19;5052027;28;20226;-74
2022/07/25 08:43:38;;;;;;;8.88;8.07;;;;;;;28.40;100.00;100153.03;5052481;28;20207;-75
2022/07/25 08:46:06;;;;;;;10.98;8.70;;;;;;;28.73;100.00;100147.59;5052508;28;20203;-76
2022/07/25 08:48:36;;;;;;;8.30;7.53;;;;;;;28.86;100.00;100148.59;5052346;28;20286;-73
2022/07/25 08:51:03;;;;;;;12.93;9.07;;;;;;;28.91;100.00;100134.97;5052608;28;20662;-75
2022/07/25 08:53:31;;;;;;;13.70;8.35;;;;;;;28.95;100.00;100140.03;5052268;28;20203;-74
2022/07/25 08:55:58;;;;;;;8.93;8.13;;;;;;;28.93;100.00;100147.25;5052389;28;20198;-75
2022/07/25 08:58:24;;;;;;;6.90;6.28;;;;;;;28.32;100.00;100131.28;5052387;28;20199;-75
2022/07/25 09:00:51;;;;;;;10.13;8.18;;;;;;;28.55;100.00;100143.28;5056134;28;20218;-75
2022/07/25 09:03:18;;;;;;;9.25;7.72;;;;;;;28.86;100.00;100121.06;5071934;28;20202;-75
2022/07/25 09:05:46;;;;;;;8.95;8.00;;;;;;;28.74;99.22;100087.06;5072050;28;20194;-74
2022/07/25 09:08:16;;;;;;;9.95;8.48;;;;;;;29.58;96.06;100147.78;5057425;28;20729;-74
2022/07/25 09:10:46;;;;;;;8.70;7.80;;;;;;;28.76;100.00;100135.88;5072348;28;20275;-75
2022/07/25 09:13:14;;;;;;;10.13;8.10;;;;;;;28.79;100.00;100143.72;5072063;28;20205;-74
2022/07/25 09:15:47;;;;;;;11.40;9.15;;;;;;;28.74;100.00;100130.63;5072079;28;20195;-74
2022/07/25 09:18:15;;;;;;;12.35;8.80;;;;;;;28.63;100.00;100121.50;5026633;28;20222;-75
2022/07/25 09:20:44;;;;;;;9.88;8.90;;;;;;;29.22;100.00;100136.63;5067482;28;20218;-72
2022/07/25 09:23:14;;;;;;;8.55;7.75;;;;;;;29.07;99.47;100130.44;5071585;28;20237;-74
2022/07/25 09:25:41;;;;;;;12.02;8.82;;;;;;;29.03;100.00;100105.75;5071358;28;20199;-74
2022/07/25 09:28:16;;;;;;;10.20;9.07;;;;;;;28.93;100.00;100128.56;5071617;28;20571;-74
2022/07/25 09:30:54;;;;;;;10.15;9.15;;;;;;;28.68;100.00;100100.78;5071455;28;20206;-77
2022/07/25 09:33:22;;;;;;;9.95;9.02;;;;;;;28.97;100.00;100122.09;5071584;28;20238;-75
2022/07/25 09:35:49;;;;;;;11.23;9.35;;;;;;;28.86;100.00;100121.88;5057498;28;20199;-76
2022/07/25 09:38:18;;;;;;;10.50;8.60;;;;;;;28.77;100.00;100121.59;5057223;28;20203;-75
2022/07/25 09:40:55;;;;;;;9.77;8.77;;;;;;;28.70;100.00;100113.09;5070513;28;20230;-74
2022/07/25 09:43:22;;;;;;;9.80;8.85;;;;;;;28.93;100.00;100117.06;5057422;28;20263;-74
2022/07/25 09:45:50;;;;;;;11.13;9.10;;;;;;;28.78;100.00;100116.16;5035906;28;20207;-74
2022/07/25 09:48:19;;;;;;;11.40;9.45;;;;;;;29.09;100.00;100122.31;5071025;28;20206;-74
2022/07/25 09:50:46;;;;;;;11.43;9.07;;;;;;;29.30;100.00;100121.03;5071351;28;20217;-74
2022/07/25 09:53:13;;;;;;;8.82;8.02;;;;;;;29.02;100.00;100117.34;5068027;28;20214;-75
2022/07/25 09:55:41;;;;;;;10.40;8.80;;;;;;;28.90;100.00;100061.16;5060365;28;20602;-74
2022/07/25 09:58:08;;;;;;;10.35;9.38;;;;;;;29.44;99.34;100118.38;5070651;28;20199;-74
2022/07/25 10:00:35;;;;;;;13.32;9.15;;;;;;;29.61;97.13;100120.03;5070932;28;20226;-74
2022/07/25 10:03:15;;;;;;;10.25;9.23;;;;;;;29.40;97.56;100068.75;5071108;28;20198;-74
2022/07/25 10:05:56;;;;;;;12.23;8.80;;;;;;;29.90;95.11;100111.88;5059611;28;20225;-74
2022/07/25 10:08:24;;;;;;;10.90;7.80;;;;;;;29.91;94.66;100121.63;5068504;28;20751;-74
2022/07/25 10:10:52;;;;;;;9.68;8.68;;;;;;;29.51;96.17;100101.88;5057794;28;20670;-74
2022/07/25 10:13:30;;;;;;;11.63;8.18;;;;;;;30.01;94.86;100120.06;5070890;28;20198;-74
2022/07/25 10:15:57;;;;;;;9.25;8.32;;;;;;;30.13;90.06;100102.38;5070588;28;20209;-74
2022/07/25 10:18:28;;;;;;;9.82;8.70;;;;;;;30.20;88.28;100105.50;5070776;28;20190;-75
2022/07/25 10:21:08;;;;;;;9.80;8.77;;;;;;;30.24;86.95;100101.69;5070734;28;20233;-75
2022/07/25 10:23:35;;;;;;;8.75;7.93;;;;;;;30.39;87.30;100104.19;5070254;28;20229;-76
2022/07/25 10:26:09;;;;;;;8.82;7.72;;;;;;;30.44;85.32;100106.59;5070255;28;20191;-76
2022/07/25 10:28:39;;;;;;;9.20;8.35;;;;;;;30.08;86.24;100076.88;5070347;28;20205;-75
2022/07/25 10:31:22;;;;;;;7.85;7.15;;;;;;;30.40;85.67;100102.38;5070427;28;20198;-75
2022/07/25 10:33:52;;;;;;;18.58;8.02;;;;;;;30.50;82.27;100085.63;5070268;28;20194;-76
2022/07/25 10:36:19;;;;;;;8.60;7.90;;;;;;;30.61;82.95;100097.47;5070245;28;20669;-75
2022/07/25 10:38:47;;;;;;;9.00;8.18;;;;;;;30.40;81.65;100083.63;5070245;28;20581;-74
2022/07/25 10:41:16;;;;;;;8.25;7.45;;;;;;;30.63;81.60;100100.88;5068965;28;20230;-74
2022/07/25 10:43:45;;;;;;;12.40;7.47;;;;;;;30.33;83.13;100088.53;5070567;28;20198;-74
2022/07/25 10:46:13;;;;;;;7.75;6.80;;;;;;;30.86;81.99;100092.13;5070898;28;20197;-74
2022/07/25 10:48:41;;;;;;;8.63;7.72;;;;;;;30.94;81.46;100073.72;5070740;28;20190;-74
2022/07/25 10:51:09;;;;;;;8.60;7.45;;;;;;;31.38;77.84;100090.25;5070252;28;20677;-75
2022/07/25 10:53:38;;;;;;;9.07;8.18;;;;;;;31.15;77.62;100076.75;5070214;28;20229;-74
2022/07/25 10:56:09;;;;;;;7.88;7.20;;;;;;;30.95;78.25;100083.47;5067953;28;20713;-74
2022/07/25 10:58:50;;;;;;;7.97;7.28;;;;;;;31.05;79.96;100081.91;5065617;28;20662;-75
2022/07/25 11:01:22;;;;;;;8.35;7.53;;;;;;;30.88;77.04;100064.28;5058865;28;20599;-74
2022/07/25 11:03:49;;;;;;;9.15;7.82;;;;;;;30.92;78.88;100075.66;5056339;28;20214;-75
2022/07/25 11:06:17;;;;;;;9.38;6.97;;;;;;;30.21;80.49;100054.59;5066458;28;20210;-75
2022/07/25 11:08:44;;;;;;;7.55;6.85;;;;;;;30.28;80.67;100073.78;5060958;28;20576;-73
2022/07/25 11:11:12;;;;;;;8.77;7.63;;;;;;;30.31;81.42;100068.22;5065401;28;20205;-74
2022/07/25 11:13:41;;;;;;;8.20;7.50;;;;;;;30.61;80.70;100066.16;5046182;28;20198;-74
2022/07/25 11:16:10;;;;;;;8.25;7.53;;;;;;;30.61;79.10;100060.81;5061984;28;20207;-75
2022/07/25 11:18:39;;;;;;;8.77;7.25;;;;;;;30.89;76.50;100057.94;5064963;28;20206;-74
2022/07/25 11:21:07;;;;;;;11.13;7.03;;;;;;;31.15;74.68;100058.84;5064949;28;20259;-75